East Moss Point, Mississippi
Current Conditions -  °F | °C
As of 5:53 PM on Wednesday 26 Nov 2014 (Local Time) from KPQL Reporting Station
Clear Clear  
Wind Chill: 53°   Ceiling: Unl
Heat Index: 53°   Visibility: 10mi
Dew Point: 44°   Wind: 5mph
Humidity: 71%   Direction: 210°SSW
Pressure: 30.19"   Gusts: NA
Location:  30.4156°N, 88.5348°W
Report Text: KPQL 262353Z 21004KT 10SM CLR 12/07 A3019 RMK AO2 SLP225 T01170067 10167 20083 53003
Loading
Personal Weather Stations






























Interactive Weather Map New forecast layout! Learn more

10-Day Weather Forecast

Advertisements
Track Severe Weather on mobile